Time;durP1;ratioP1;P1;durP2;ratioP2;P2;SDS_P1;SDS_P2;PMS_P1;PMS_P2;Temp;Humidity;BMP_temperature;BMP_pressure;BME280_temperature;BME280_humidity;BME280_pressure;Samples;Min_cycle;Max_cycle;Signal;HPM_P1;HPM_P2
2022/01/23 00:01:45;;;;;;;12.93;9.97;;;9.20;99.90;;;;;;5028847;28;20225;-81
2022/01/23 00:04:11;;;;;;;13.20;9.53;;;9.30;99.90;;;;;;5042331;28;20224;-81
2022/01/23 00:06:38;;;;;;;11.53;9.13;;;9.20;99.90;;;;;;5047142;28;20737;-81
2022/01/23 00:09:06;;;;;;;20.20;9.33;;;9.30;99.90;;;;;;5038411;28;20266;-81
2022/01/23 00:11:38;;;;;;;11.03;8.50;;;9.30;99.90;;;;;;5046185;28;20233;-81
2022/01/23 00:19:34;;;;;;;11.93;7.97;;;9.20;99.90;;;;;;5041481;28;20245;-81
2022/01/23 00:22:02;;;;;;;10.80;7.97;;;9.30;99.90;;;;;;5052808;28;20303;-81
2022/01/23 00:32:45;;;;;;;11.20;7.93;;;9.30;99.90;;;;;;5028366;28;20228;-82
2022/01/23 00:35:12;;;;;;;8.67;6.87;;;9.30;99.90;;;;;;5034647;28;20226;-81
2022/01/23 00:37:38;;;;;;;8.83;6.87;;;9.30;99.90;;;;;;5031773;28;20622;-81
2022/01/23 00:40:08;;;;;;;15.40;7.23;;;9.30;99.90;;;;;;5027280;28;20308;-81
2022/01/23 00:42:35;;;;;;;11.07;6.77;;;9.30;99.90;;;;;;5049343;28;20239;-81
2022/01/23 00:45:15;;;;;;;9.17;6.87;;;9.30;99.90;;;;;;5039668;28;20340;-81
2022/01/23 00:47:42;;;;;;;7.90;6.10;;;9.30;99.90;;;;;;5017039;28;20245;-81
2022/01/23 00:50:09;;;;;;;9.13;6.73;;;9.30;99.90;;;;;;5037688;28;20748;-81
2022/01/23 00:52:36;;;;;;;9.63;6.33;;;9.30;99.90;;;;;;5025982;28;20726;-81
2022/01/23 00:55:04;;;;;;;8.93;6.80;;;9.30;99.90;;;;;;5054453;28;20307;-81
2022/01/23 00:57:33;;;;;;;10.83;5.90;;;9.30;99.90;;;;;;5038117;28;20226;-81
2022/01/23 01:00:00;;;;;;;8.27;6.07;;;9.40;99.90;;;;;;5022112;28;20715;-81
2022/01/23 01:02:28;;;;;;;10.10;6.93;;;9.40;99.90;;;;;;5040238;28;20238;-80
2022/01/23 01:04:55;;;;;;;8.37;5.90;;;9.30;99.90;;;;;;5030835;28;20241;-81
2022/01/23 01:07:22;;;;;;;10.23;6.63;;;9.40;99.90;;;;;;5022020;28;20225;-81
2022/01/23 01:09:51;;;;;;;9.03;6.90;;;9.30;99.90;;;;;;5022935;28;20226;-80
2022/01/23 01:12:20;;;;;;;19.63;7.50;;;9.30;99.90;;;;;;5027030;28;20240;-80
2022/01/23 01:15:26;;;;;;;7.93;6.63;;;9.30;99.90;;;;;;5031756;28;20696;-79
2022/01/23 01:31:39;;;;;;;9.37;6.20;;;9.30;99.90;;;;;;5024199;28;20233;-82
2022/01/23 01:34:10;;;;;;;10.43;6.30;;;9.30;99.90;;;;;;5032382;28;20222;-80
2022/01/23 01:36:46;;;;;;;10.97;6.40;;;9.30;99.90;;;;;;5025429;28;20226;-80
2022/01/23 01:39:14;;;;;;;14.33;6.40;;;9.40;99.90;;;;;;5033826;28;20316;-80
2022/01/23 01:41:42;;;;;;;12.37;6.33;;;9.40;99.90;;;;;;5042171;28;20335;-81
2022/01/23 01:44:11;;;;;;;8.10;5.50;;;9.40;99.90;;;;;;5034589;28;20225;-80
2022/01/23 01:46:57;;;;;;;9.70;5.67;;;9.40;99.90;;;;;;5048026;28;20245;-81
2022/01/23 01:49:31;;;;;;;9.23;5.63;;;9.40;99.90;;;;;;5070623;28;20241;-80
2022/01/23 01:52:00;;;;;;;8.33;5.77;;;9.40;99.90;;;;;;5029091;28;20241;-80
2022/01/23 01:54:30;;;;;;;11.77;5.90;;;9.40;99.90;;;;;;5030454;28;20275;-80
2022/01/23 01:57:07;;;;;;;8.43;5.77;;;9.40;99.90;;;;;;5032783;28;20230;-81
2022/01/23 01:59:50;;;;;;;9.20;5.33;;;9.40;99.90;;;;;;5053449;28;20241;-81
2022/01/23 02:08:32;;;;;;;6.97;5.77;;;9.40;99.90;;;;;;5054909;28;20248;-82
2022/01/23 02:11:06;;;;;;;8.83;5.80;;;9.40;99.90;;;;;;5025171;28;20257;-80
2022/01/23 02:13:36;;;;;;;8.00;5.33;;;9.40;99.90;;;;;;5022899;28;20231;-82
2022/01/23 02:16:32;;;;;;;7.73;5.57;;;9.40;99.90;;;;;;5017884;28;20226;-81
2022/01/23 02:25:12;;;;;;;6.73;5.07;;;9.40;99.90;;;;;;5038147;28;20282;-80
2022/01/23 02:52:41;;;;;;;7.80;5.53;;;9.40;99.90;;;;;;5061980;28;20260;-81
2022/01/23 02:55:13;;;;;;;7.53;5.07;;;9.40;99.90;;;;;;5025420;28;20254;-81
2022/01/23 02:57:52;;;;;;;9.17;5.87;;;9.30;99.90;;;;;;5033240;28;20237;-81
2022/01/23 03:00:25;;;;;;;14.67;6.13;;;9.40;99.90;;;;;;5029683;28;20214;-80
2022/01/23 03:03:09;;;;;;;7.77;5.97;;;9.40;99.90;;;;;;5052634;28;20229;-80
2022/01/23 03:05:41;;;;;;;9.10;6.13;;;9.40;99.90;;;;;;5018537;28;20231;-81
2022/01/23 03:08:23;;;;;;;16.77;6.60;;;9.40;99.90;;;;;;5027489;28;20230;-80
2022/01/23 03:11:02;;;;;;;8.27;6.17;;;9.40;99.90;;;;;;5058023;28;20242;-80
2022/01/23 03:24:04;;;;;;;9.60;5.53;;;9.40;99.90;;;;;;5030417;28;20224;-81
2022/01/23 03:24:48;;;;;;;15.33;7.00;;;9.40;99.90;;;;;;5065092;28;20229;-81
2022/01/23 03:27:47;;;;;;;9.50;6.87;;;9.40;99.90;;;;;;5035063;28;20694;-80
2022/01/23 03:30:18;;;;;;;9.53;6.60;;;9.50;99.90;;;;;;5026341;28;20239;-81
2022/01/23 03:32:47;;;;;;;11.37;7.53;;;9.50;99.90;;;;;;5030333;28;20285;-80
2022/01/23 03:35:14;;;;;;;25.60;8.47;;;9.50;99.90;;;;;;5036982;28;20224;-81
2022/01/23 03:37:41;;;;;;;11.77;6.90;;;9.50;99.90;;;;;;5041808;28;20241;-81
2022/01/23 03:40:09;;;;;;;10.90;7.00;;;9.40;99.90;;;;;;5041647;28;20236;-82
2022/01/23 03:42:41;;;;;;;10.20;7.53;;;9.50;99.90;;;;;;5036185;28;20236;-81
2022/01/23 03:45:29;;;;;;;9.20;6.23;;;9.40;99.90;;;;;;5037539;28;20589;-82
2022/01/23 03:49:30;;;;;;;9.90;6.93;;;9.50;99.90;;;;;;5035934;28;20251;-81
2022/01/23 03:50:49;;;;;;;11.17;7.60;;;9.50;99.90;;;;;;5030766;28;20244;-81
2022/01/23 03:53:35;;;;;;;10.10;6.80;;;9.50;99.90;;;;;;5035580;28;20237;-81
2022/01/23 03:56:02;;;;;;;10.70;7.23;;;9.50;99.90;;;;;;5035758;28;20861;-82
2022/01/23 03:58:33;;;;;;;12.37;7.90;;;9.50;99.90;;;;;;5058300;28;20248;-82
2022/01/23 04:01:00;;;;;;;11.33;7.40;;;9.50;99.90;;;;;;5031047;28;20225;-82
2022/01/23 04:03:27;;;;;;;12.73;7.73;;;9.50;99.90;;;;;;5051861;28;20231;-82
2022/01/23 04:05:54;;;;;;;11.97;7.67;;;9.50;99.90;;;;;;5045819;28;20324;-82
2022/01/23 04:08:21;;;;;;;13.50;7.30;;;9.50;99.90;;;;;;5035270;28;20726;-82
2022/01/23 04:10:48;;;;;;;12.30;7.40;;;9.50;99.90;;;;;;5033671;28;20240;-81
2022/01/23 04:13:20;;;;;;;9.77;6.80;;;9.50;99.90;;;;;;5041337;28;20225;-81
2022/01/23 04:15:53;;;;;;;10.83;7.03;;;9.50;99.90;;;;;;5061185;28;20656;-81
2022/01/23 04:31:34;;;;;;;10.50;7.13;;;9.50;99.90;;;;;;5025504;28;20225;-82
2022/01/23 04:32:36;;;;;;;10.60;6.93;;;9.60;99.90;;;;;;5058948;28;20259;-80
2022/01/23 04:35:19;;;;;;;12.13;6.90;;;9.60;99.90;;;;;;5031744;28;20236;-80
2022/01/23 04:46:35;;;;;;;8.80;6.03;;;9.60;99.90;;;;;;4939211;28;20224;-80
2022/01/23 04:59:33;;;;;;;9.00;6.13;;;9.60;99.90;;;;;;4930819;28;20346;-82
2022/01/23 05:00:09;;;;;;;11.03;6.80;;;9.70;99.90;;;;;;5061419;28;20309;-82
2022/01/23 05:03:10;;;;;;;12.90;6.67;;;9.70;99.90;;;;;;5022345;28;20668;-83
2022/01/23 05:06:04;;;;;;;10.30;6.03;;;9.70;99.90;;;;;;5017622;28;20220;-81
2022/01/23 05:08:44;;;;;;;14.03;6.93;;;9.70;99.90;;;;;;5037561;28;20682;-82
2022/01/23 05:11:32;;;;;;;13.93;6.67;;;9.70;99.90;;;;;;5042709;28;20678;-81
2022/01/23 05:14:14;;;;;;;8.67;6.30;;;9.70;99.90;;;;;;5039338;28;20238;-80
2022/01/23 05:16:40;;;;;;;12.47;6.53;;;9.70;99.90;;;;;;5054845;28;20321;-81
2022/01/23 05:19:08;;;;;;;9.93;6.80;;;9.80;99.90;;;;;;5061097;28;20660;-82
2022/01/23 05:22:06;;;;;;;10.93;7.00;;;9.70;99.90;;;;;;5034430;28;20240;-81
2022/01/23 05:24:37;;;;;;;11.17;7.17;;;9.80;99.90;;;;;;5034605;28;20226;-81
2022/01/23 05:27:07;;;;;;;11.80;7.63;;;9.80;99.90;;;;;;5045575;28;20265;-81
2022/01/23 05:29:34;;;;;;;9.87;6.77;;;9.80;99.90;;;;;;5025333;28;20227;-81
2022/01/23 05:32:01;;;;;;;14.70;6.83;;;9.80;99.90;;;;;;5043663;28;20227;-81
2022/01/23 05:34:28;;;;;;;11.60;7.27;;;9.80;99.90;;;;;;5031252;28;20776;-81
2022/01/23 05:37:03;;;;;;;9.40;6.70;;;9.80;99.90;;;;;;5032818;28;20227;-81
2022/01/23 05:39:33;;;;;;;8.80;6.33;;;9.80;99.90;;;;;;5037209;28;20723;-81
2022/01/23 05:42:06;;;;;;;8.27;6.17;;;9.80;99.90;;;;;;5032979;28;20245;-81
2022/01/23 05:44:35;;;;;;;9.73;6.33;;;9.80;99.90;;;;;;5018270;28;20381;-81
2022/01/23 05:47:04;;;;;;;8.37;6.17;;;9.80;99.90;;;;;;5031176;28;20323;-81
2022/01/23 05:49:43;;;;;;;8.80;6.23;;;9.80;99.90;;;;;;5042027;28;20234;-81
2022/01/23 05:52:27;;;;;;;9.60;6.30;;;9.90;99.90;;;;;;5031223;28;20300;-81
2022/01/23 05:55:07;;;;;;;11.83;6.90;;;9.90;99.90;;;;;;5032699;28;20222;-80
2022/01/23 05:57:42;;;;;;;10.80;6.87;;;9.90;99.90;;;;;;5045513;28;20233;-81
2022/01/23 06:00:20;;;;;;;10.57;6.83;;;9.90;99.90;;;;;;5029844;28;20239;-81
2022/01/23 06:02:53;;;;;;;9.43;7.07;;;9.90;99.90;;;;;;5064475;28;20235;-81
2022/01/23 06:05:26;;;;;;;11.10;7.20;;;9.90;99.90;;;;;;5046134;28;20256;-80
2022/01/23 06:08:06;;;;;;;11.30;6.83;;;9.90;99.90;;;;;;5025583;28;20227;-82
2022/01/23 06:10:46;;;;;;;8.87;6.77;;;9.90;99.90;;;;;;5040841;28;20241;-84
2022/01/23 06:13:13;;;;;;;9.10;6.33;;;9.90;99.90;;;;;;5034736;28;20224;-83
2022/01/23 06:15:40;;;;;;;9.00;6.77;;;9.90;99.90;;;;;;5038837;28;20237;-82
2022/01/23 06:18:07;;;;;;;10.00;7.33;;;9.90;99.90;;;;;;5032311;28;20226;-82
2022/01/23 06:20:52;;;;;;;9.77;6.40;;;9.90;99.90;;;;;;5045816;28;20260;-83
2022/01/23 06:23:59;;;;;;;9.07;6.53;;;9.90;99.90;;;;;;5045075;28;20235;-84
2022/01/23 06:26:44;;;;;;;13.33;6.70;;;9.90;99.90;;;;;;5046822;28;20239;-83
2022/01/23 06:29:12;;;;;;;14.90;6.73;;;9.90;99.90;;;;;;5034514;28;20715;-83
2022/01/23 06:31:40;;;;;;;21.23;7.27;;;9.90;99.90;;;;;;5031918;28;20341;-82
2022/01/23 06:34:08;;;;;;;7.93;5.80;;;9.90;99.90;;;;;;5038808;28;20222;-81
2022/01/23 06:36:35;;;;;;;9.57;6.10;;;10.00;99.90;;;;;;5035680;28;20289;-81
2022/01/23 06:39:10;;;;;;;10.70;6.20;;;9.90;99.90;;;;;;5033174;28;20240;-82
2022/01/23 06:41:39;;;;;;;10.37;6.03;;;10.00;99.90;;;;;;5032687;28;20230;-82
2022/01/23 06:44:27;;;;;;;10.23;6.30;;;9.90;99.90;;;;;;5034099;28;20245;-82
2022/01/23 06:46:56;;;;;;;9.67;5.93;;;10.00;99.90;;;;;;5034149;28;20225;-82
2022/01/23 06:49:24;;;;;;;10.87;6.20;;;10.00;99.90;;;;;;5026595;28;20231;-82
2022/01/23 06:51:51;;;;;;;8.87;5.60;;;10.00;99.90;;;;;;5029936;28;20226;-82
2022/01/23 06:54:20;;;;;;;10.23;5.70;;;10.00;99.90;;;;;;5033927;28;20246;-81
2022/01/23 06:56:47;;;;;;;9.00;5.27;;;10.00;99.90;;;;;;5034211;28;20234;-82
2022/01/23 06:59:14;;;;;;;8.80;5.17;;;10.00;99.90;;;;;;5029726;28;20251;-82
2022/01/23 07:01:48;;;;;;;7.43;4.63;;;10.00;99.90;;;;;;5034167;28;20714;-82
2022/01/23 07:04:28;;;;;;;7.87;5.50;;;10.00;99.90;;;;;;5024288;28;20664;-82
2022/01/23 07:07:17;;;;;;;12.30;5.17;;;10.00;99.90;;;;;;5062464;28;20234;-82
2022/01/23 07:09:48;;;;;;;11.47;8.47;;;10.00;99.90;;;;;;5052835;28;20230;-82
2022/01/23 07:12:44;;;;;;;8.07;4.80;;;10.00;99.90;;;;;;5029577;28;20881;-82
2022/01/23 07:15:30;;;;;;;7.27;5.50;;;10.00;99.90;;;;;;5049824;28;20228;-83
2022/01/23 07:18:11;;;;;;;5.60;3.90;;;10.00;99.90;;;;;;5026048;28;20287;-81
2022/01/23 07:20:42;;;;;;;6.53;4.50;;;10.00;99.90;;;;;;5025777;28;20223;-82
2022/01/23 07:23:14;;;;;;;6.20;4.60;;;10.00;99.90;;;;;;5024790;28;20554;-82
2022/01/23 07:25:44;;;;;;;6.20;4.37;;;10.00;99.90;;;;;;5030292;28;20932;-83
2022/01/23 07:28:14;;;;;;;6.47;4.27;;;10.00;99.90;;;;;;5020155;28;20227;-82
2022/01/23 07:30:48;;;;;;;9.20;4.63;;;10.00;99.90;;;;;;5045459;28;20300;-81
2022/01/23 07:33:15;;;;;;;11.80;4.43;;;10.10;99.90;;;;;;5026137;28;20589;-83
2022/01/23 07:35:42;;;;;;;15.07;4.97;;;10.10;99.90;;;;;;5028626;28;20235;-82
2022/01/23 07:38:11;;;;;;;8.30;5.10;;;10.10;99.90;;;;;;5040369;28;20245;-82
2022/01/23 07:41:02;;;;;;;12.93;5.50;;;10.10;99.90;;;;;;5036162;28;20237;-82
2022/01/23 07:43:43;;;;;;;13.07;6.00;;;10.10;99.90;;;;;;5024076;28;20249;-82
2022/01/23 07:46:21;;;;;;;8.07;5.13;;;10.10;99.90;;;;;;5053518;28;20964;-82
2022/01/23 07:49:06;;;;;;;8.73;5.97;;;10.10;99.90;;;;;;5037735;28;20256;-83
2022/01/23 07:51:49;;;;;;;7.73;5.53;;;10.10;99.90;;;;;;5032278;28;20232;-82
2022/01/23 07:54:42;;;;;;;11.17;5.90;;;10.10;99.90;;;;;;5008477;28;20328;-81
2022/01/23 07:57:30;;;;;;;9.13;5.83;;;10.10;99.90;;;;;;5025262;28;20236;-81
2022/01/23 08:00:16;;;;;;;10.10;5.83;;;10.10;99.90;;;;;;5047270;28;20239;-82
2022/01/23 08:02:43;;;;;;;26.87;14.83;;;10.10;99.90;;;;;;5048310;28;20235;-82
2022/01/23 08:05:28;;;;;;;12.57;7.60;;;10.10;99.90;;;;;;5042117;28;20382;-81
2022/01/23 08:08:21;;;;;;;8.57;5.70;;;10.10;99.90;;;;;;5054614;28;20226;-82
2022/01/23 08:10:55;;;;;;;9.13;5.63;;;10.10;99.90;;;;;;5063451;28;20303;-83
2022/01/23 08:13:23;;;;;;;19.83;6.43;;;10.10;99.90;;;;;;5034185;28;20759;-82
2022/01/23 08:15:50;;;;;;;9.07;5.33;;;10.10;99.90;;;;;;5031401;28;20261;-84
2022/01/23 08:18:17;;;;;;;10.67;6.00;;;10.10;99.90;;;;;;5023803;28;20227;-83
2022/01/23 08:20:44;;;;;;;22.70;6.77;;;10.10;99.90;;;;;;5038988;28;20237;-86
2022/01/23 08:23:12;;;;;;;20.50;6.20;;;10.10;99.90;;;;;;5039784;28;20280;-86
2022/01/23 08:25:39;;;;;;;48.27;8.53;;;10.20;99.90;;;;;;5053297;28;20239;-84
2022/01/23 08:28:07;;;;;;;22.50;6.60;;;10.20;99.90;;;;;;5037555;28;20237;-85
2022/01/23 08:30:36;;;;;;;26.73;7.57;;;10.20;99.90;;;;;;5039447;28;20273;-85
2022/01/23 08:33:03;;;;;;;41.50;8.10;;;10.20;99.90;;;;;;5064855;28;20872;-84
2022/01/23 08:35:30;;;;;;;29.97;6.60;;;10.30;99.90;;;;;;5036013;28;20231;-86
2022/01/23 08:37:57;;;;;;;18.10;6.83;;;10.30;99.90;;;;;;5033446;28;20288;-85
2022/01/23 08:40:34;;;;;;;118.07;12.30;;;10.30;99.90;;;;;;5029286;28;20232;-84
2022/01/23 08:43:00;;;;;;;28.27;6.57;;;10.30;99.90;;;;;;5028928;28;20230;-86
2022/01/23 08:45:29;;;;;;;20.50;6.13;;;10.30;99.90;;;;;;5031188;28;20958;-84
2022/01/23 08:47:57;;;;;;;12.60;5.47;;;10.30;99.90;;;;;;5045963;28;20251;-85
2022/01/23 08:50:25;;;;;;;9.50;4.50;;;10.30;99.90;;;;;;5029763;28;20731;-84
2022/01/23 08:52:52;;;;;;;8.40;4.53;;;10.30;99.90;;;;;;5036942;28;20300;-88
2022/01/23 08:55:20;;;;;;;11.63;4.20;;;10.30;99.90;;;;;;5048828;28;20227;-88
2022/01/23 08:57:47;;;;;;;8.90;4.07;;;10.40;99.90;;;;;;5052280;28;20219;-86
2022/01/23 09:00:17;;;;;;;11.50;4.40;;;10.30;99.90;;;;;;5031982;28;20231;-85
2022/01/23 09:02:44;;;;;;;7.57;4.10;;;10.30;99.90;;;;;;5056769;28;20231;-85
2022/01/23 09:05:12;;;;;;;9.53;4.40;;;10.40;99.90;;;;;;5054376;28;20990;-85
2022/01/23 09:07:39;;;;;;;9.60;4.33;;;10.40;99.90;;;;;;5049059;28;20313;-85
2022/01/23 09:10:06;;;;;;;20.43;10.53;;;10.40;99.90;;;;;;5040925;28;20224;-84
2022/01/23 09:12:44;;;;;;;11.73;5.30;;;10.40;99.90;;;;;;5030793;28;20320;-85
2022/01/23 09:15:37;;;;;;;17.93;5.50;;;10.40;99.90;;;;;;5046851;28;20236;-86
2022/01/23 09:25:52;;;;;;;15.77;6.23;;;10.50;99.90;;;;;;5050300;28;20879;-87
2022/01/23 09:28:20;;;;;;;27.77;12.13;;;10.50;99.90;;;;;;5029660;28;20281;-85
2022/01/23 09:30:51;;;;;;;26.43;12.40;;;10.50;99.90;;;;;;5056940;28;20708;-86
2022/01/23 09:33:18;;;;;;;13.10;4.93;;;10.50;99.90;;;;;;5035096;28;20817;-84
2022/01/23 09:35:45;;;;;;;10.53;5.00;;;10.50;99.90;;;;;;5041937;28;20277;-85
2022/01/23 09:38:11;;;;;;;11.87;5.57;;;10.50;99.90;;;;;;5053760;28;20237;-86
2022/01/23 09:40:41;;;;;;;48.23;22.60;;;10.50;99.90;;;;;;5043456;28;20235;-84
2022/01/23 09:43:16;;;;;;;80.23;37.97;;;10.50;99.90;;;;;;5039820;28;20241;-85
2022/01/23 09:45:47;;;;;;;10.87;6.73;;;10.50;99.90;;;;;;5057895;28;20820;-84
2022/01/23 09:48:16;;;;;;;8.67;5.17;;;10.60;99.90;;;;;;5020033;28;20341;-87
2022/01/23 09:50:45;;;;;;;11.30;5.50;;;10.60;99.90;;;;;;5032951;28;20332;-85
2022/01/23 09:53:14;;;;;;;8.37;4.70;;;10.60;99.90;;;;;;5037339;28;20308;-87
2022/01/23 09:55:42;;;;;;;9.03;5.13;;;10.60;99.90;;;;;;5059997;28;20246;-85
2022/01/23 09:58:10;;;;;;;8.10;3.93;;;10.60;99.90;;;;;;5030117;28;20278;-86
2022/01/23 10:00:37;;;;;;;15.80;7.50;;;10.70;99.90;;;;;;5030392;28;20252;-84
2022/01/23 10:03:04;;;;;;;17.53;7.90;;;10.70;99.90;;;;;;5039809;28;20219;-85
2022/01/23 10:05:31;;;;;;;11.23;5.20;;;10.70;99.90;;;;;;5046510;28;20234;-85
2022/01/23 10:07:59;;;;;;;38.27;19.33;;;10.70;99.90;;;;;;5050795;28;20320;-84
2022/01/23 10:10:28;;;;;;;8.90;4.90;;;10.80;99.90;;;;;;5027851;28;20230;-85
2022/01/23 10:12:57;;;;;;;11.43;4.67;;;10.80;99.90;;;;;;5040161;28;20490;-85
2022/01/23 10:15:27;;;;;;;8.73;4.57;;;10.80;99.90;;;;;;5031334;28;20593;-85
2022/01/23 10:17:54;;;;;;;15.87;4.50;;;10.90;99.90;;;;;;5033399;28;20260;-85
2022/01/23 10:20:21;;;;;;;24.37;10.80;;;10.90;99.90;;;;;;5043881;28;20227;-85
2022/01/23 10:22:50;;;;;;;12.00;4.83;;;10.90;99.90;;;;;;5047353;28;20243;-84
2022/01/23 10:25:20;;;;;;;11.30;6.43;;;11.00;99.90;;;;;;5047767;28;20979;-85
2022/01/23 10:27:55;;;;;;;9.43;4.37;;;11.00;99.90;;;;;;5030090;28;20234;-84
2022/01/23 10:30:26;;;;;;;7.23;4.77;;;11.00;99.90;;;;;;5025399;28;20797;-85
2022/01/23 10:32:58;;;;;;;8.13;4.77;;;11.10;99.90;;;;;;5054648;28;20231;-85
2022/01/23 10:35:25;;;;;;;7.30;4.33;;;11.10;99.90;;;;;;5060666;28;20239;-85
2022/01/23 10:37:54;;;;;;;9.10;5.30;;;11.20;99.90;;;;;;5047234;28;20803;-81
2022/01/23 10:40:30;;;;;;;6.50;4.20;;;11.10;99.90;;;;;;5042851;28;20256;-81
2022/01/23 10:48:42;;;;;;;6.77;4.70;;;11.20;99.90;;;;;;5034676;28;20256;-80
2022/01/23 10:51:22;;;;;;;9.97;4.30;;;11.20;99.90;;;;;;5041247;28;20255;-82
2022/01/23 10:54:20;;;;;;;10.60;4.57;;;11.20;99.90;;;;;;5058469;28;20232;-81
2022/01/23 10:57:00;;;;;;;10.50;4.97;;;11.20;99.90;;;;;;5029628;28;20754;-82
2022/01/23 10:59:39;;;;;;;9.87;5.23;;;11.20;99.90;;;;;;5050654;28;20229;-82
2022/01/23 11:02:09;;;;;;;11.23;5.40;;;11.20;99.90;;;;;;5038005;28;20286;-80
2022/01/23 11:04:51;;;;;;;11.93;6.60;;;11.20;99.90;;;;;;5025303;28;20246;-81
2022/01/23 11:07:18;;;;;;;14.80;6.50;;;11.20;99.90;;;;;;5029232;28;20220;-80
2022/01/23 11:09:45;;;;;;;13.27;6.47;;;11.30;99.90;;;;;;5030267;28;20959;-81
2022/01/23 11:12:29;;;;;;;13.23;6.63;;;11.30;99.90;;;;;;5030691;28;20225;-81
2022/01/23 11:17:53;;;;;;;21.13;7.33;;;11.30;99.90;;;;;;5070760;28;20234;-81
2022/01/23 11:20:35;;;;;;;15.40;8.77;;;11.30;99.90;;;;;;5057688;28;20225;-81
2022/01/23 11:23:10;;;;;;;25.87;9.90;;;11.40;99.90;;;;;;5046314;28;20223;-80
2022/01/23 11:25:37;;;;;;;21.13;11.37;;;11.30;99.90;;;;;;5028167;28;20238;-80
2022/01/23 11:28:05;;;;;;;20.47;10.83;;;11.30;99.90;;;;;;5043982;28;20235;-79
2022/01/23 11:30:41;;;;;;;20.83;10.20;;;11.30;99.90;;;;;;5041995;28;20231;-81
2022/01/23 11:33:16;;;;;;;23.47;10.27;;;11.40;99.90;;;;;;5045066;28;20216;-80
2022/01/23 11:35:43;;;;;;;22.30;10.47;;;11.40;99.90;;;;;;5028865;28;20267;-81
2022/01/23 11:38:14;;;;;;;17.07;10.17;;;11.40;99.90;;;;;;5025944;28;20227;-81
2022/01/23 11:54:40;;;;;;;12.50;7.63;;;11.80;99.90;;;;;;5019847;28;20694;-81
2022/01/23 11:57:39;;;;;;;15.57;7.70;;;11.90;99.90;;;;;;5046148;28;20309;-80
2022/01/23 12:00:28;;;;;;;14.40;6.73;;;12.00;99.90;;;;;;5046127;28;20237;-80
2022/01/23 12:03:08;;;;;;;9.50;5.73;;;12.10;99.90;;;;;;5035579;28;20266;-81
2022/01/23 12:05:39;;;;;;;13.73;6.47;;;12.10;99.90;;;;;;5043514;28;20270;-81
2022/01/23 12:08:30;;;;;;;11.97;6.57;;;12.20;99.90;;;;;;5026843;28;20714;-80
2022/01/23 12:17:08;;;;;;;9.17;4.57;;;12.20;99.90;;;;;;5040409;28;20221;-80
2022/01/23 12:19:42;;;;;;;8.93;4.20;;;12.20;99.90;;;;;;5027665;28;20264;-83
2022/01/23 12:22:32;;;;;;;10.93;4.60;;;12.20;99.90;;;;;;5055797;28;20221;-80
2022/01/23 12:25:06;;;;;;;7.30;3.83;;;12.20;99.90;;;;;;5027628;28;20328;-80
2022/01/23 12:27:33;;;;;;;8.33;3.90;;;12.20;99.90;;;;;;5047213;28;20888;-81
2022/01/23 12:30:13;;;;;;;7.40;3.57;;;12.10;99.90;;;;;;5024180;28;20230;-82
2022/01/23 12:32:40;;;;;;;8.87;3.07;;;12.10;99.90;;;;;;5046816;28;20319;-80
2022/01/23 12:35:10;;;;;;;4.20;2.60;;;12.10;99.90;;;;;;5031350;28;20281;-80
2022/01/23 12:38:06;;;;;;;5.60;2.33;;;12.10;99.90;;;;;;5025751;28;20229;-82
2022/01/23 12:40:35;;;;;;;4.77;2.23;;;12.10;99.90;;;;;;5048414;28;20342;-82
2022/01/23 12:43:10;;;;;;;8.10;2.20;;;12.10;99.90;;;;;;5023678;28;20274;-82
2022/01/23 12:45:49;;;;;;;5.40;1.90;;;12.10;99.90;;;;;;5027039;28;20240;-82
2022/01/23 12:48:45;;;;;;;7.83;2.23;;;12.20;99.90;;;;;;5026606;28;20713;-83
2022/01/23 12:51:32;;;;;;;5.30;1.57;;;12.20;99.90;;;;;;5026047;28;20229;-80
2022/01/23 12:54:31;;;;;;;5.03;1.67;;;12.20;99.90;;;;;;5031206;28;20237;-80
2022/01/23 12:57:08;;;;;;;7.63;2.27;;;12.10;99.90;;;;;;5047965;28;20228;-80
2022/01/23 12:59:36;;;;;;;4.77;1.83;;;12.20;99.90;;;;;;5031355;28;20238;-80
2022/01/23 13:02:11;;;;;;;6.27;1.93;;;12.20;99.90;;;;;;5043438;28;20283;-81
2022/01/23 13:04:41;;;;;;;5.40;1.70;;;12.10;99.90;;;;;;5049013;28;20768;-81
2022/01/23 13:07:26;;;;;;;4.47;1.67;;;12.20;99.90;;;;;;5037937;28;20252;-81
2022/01/23 13:10:03;;;;;;;3.23;1.60;;;12.10;99.90;;;;;;5051537;28;20235;-81
2022/01/23 13:12:47;;;;;;;2.53;1.40;;;12.10;99.90;;;;;;5036827;28;20322;-82
2022/01/23 13:15:24;;;;;;;3.10;1.00;;;12.10;99.90;;;;;;5043670;28;20292;-80
2022/01/23 13:18:00;;;;;;;2.90;0.90;;;12.10;99.90;;;;;;5032456;28;20314;-83
2022/01/23 13:31:47;;;;;;;4.07;1.00;;;12.10;99.90;;;;;;5055789;28;20229;-81
2022/01/23 13:34:22;;;;;;;3.43;1.30;;;12.00;99.90;;;;;;5049013;28;20869;-81
2022/01/23 13:36:57;;;;;;;4.77;1.20;;;12.00;99.90;;;;;;5028504;28;20339;-80
2022/01/23 13:39:27;;;;;;;3.10;0.97;;;11.90;99.90;;;;;;5031942;28;20316;-81
2022/01/23 13:42:30;;;;;;;4.10;1.37;;;11.90;99.90;;;;;;5028462;28;20225;-80
2022/01/23 13:48:40;;;;;;;2.97;1.00;;;11.70;99.90;;;;;;5041903;28;20311;-80
2022/01/23 13:59:36;;;;;;;3.07;1.10;;;11.60;99.90;;;;;;5048983;28;20234;-83
2022/01/23 14:02:17;;;;;;;4.50;2.03;;;11.60;99.90;;;;;;5050608;28;20234;-82
2022/01/23 14:04:47;;;;;;;4.70;2.33;;;11.50;99.90;;;;;;5030130;28;20239;-80
2022/01/23 14:07:18;;;;;;;10.97;7.13;;;11.50;99.90;;;;;;5029106;28;20242;-80
2022/01/23 14:09:45;;;;;;;3.67;1.87;;;11.50;99.90;;;;;;5046960;28;20639;-80
2022/01/23 14:12:15;;;;;;;2.67;1.30;;;11.40;99.90;;;;;;5050676;28;20252;-81
2022/01/23 14:14:57;;;;;;;4.00;1.50;;;11.40;99.90;;;;;;5050055;28;20228;-81
2022/01/23 14:17:28;;;;;;;3.77;1.23;;;11.40;99.90;;;;;;5029411;28;20224;-81
2022/01/23 14:20:01;;;;;;;5.23;2.80;;;11.40;99.90;;;;;;5034037;28;20225;-80
2022/01/23 14:22:33;;;;;;;4.27;2.13;;;11.40;99.90;;;;;;5051056;28;20249;-80
2022/01/23 14:25:08;;;;;;;3.57;1.40;;;11.40;99.90;;;;;;5050517;28;20232;-81
2022/01/23 14:27:35;;;;;;;3.10;1.33;;;11.40;99.90;;;;;;5051424;28;20261;-80
2022/01/23 14:30:06;;;;;;;4.03;1.43;;;11.40;99.90;;;;;;5045478;28;20286;-80
2022/01/23 14:32:41;;;;;;;5.57;1.60;;;11.40;99.90;;;;;;5061920;28;20330;-80
2022/01/23 14:35:11;;;;;;;2.83;1.50;;;11.40;99.90;;;;;;5062071;28;20218;-80
2022/01/23 14:37:39;;;;;;;2.43;1.37;;;11.40;99.90;;;;;;5043678;28;20994;-83
2022/01/23 14:40:17;;;;;;;3.90;1.93;;;11.50;99.90;;;;;;5051878;28;20235;-79
2022/01/23 14:42:59;;;;;;;6.10;1.37;;;11.50;99.90;;;;;;5028888;28;20231;-81
2022/01/23 14:45:29;;;;;;;5.73;2.13;;;11.50;99.90;;;;;;5048228;28;20235;-81
2022/01/23 14:47:56;;;;;;;3.07;1.80;;;11.50;99.90;;;;;;5054230;28;20231;-81
2022/01/23 14:50:25;;;;;;;8.40;2.00;;;11.50;99.90;;;;;;5046993;28;20317;-80
2022/01/23 14:52:53;;;;;;;3.50;1.60;;;11.50;99.90;;;;;;5053411;28;20229;-81
2022/01/23 14:55:20;;;;;;;4.00;1.87;;;11.50;99.90;;;;;;5032464;28;20315;-81
2022/01/23 14:57:48;;;;;;;6.50;3.10;;;11.50;99.90;;;;;;5032050;28;20237;-81
2022/01/23 15:00:16;;;;;;;27.13;13.73;;;11.50;99.90;;;;;;5049628;28;20795;-80
2022/01/23 15:02:45;;;;;;;74.80;39.20;;;11.50;99.90;;;;;;5031796;28;20256;-80
2022/01/23 15:05:12;;;;;;;9.53;5.27;;;11.40;99.90;;;;;;5057726;28;20261;-80
2022/01/23 15:07:42;;;;;;;10.03;5.03;;;11.40;99.90;;;;;;5042925;28;20240;-80
2022/01/23 15:10:11;;;;;;;15.67;10.23;;;11.40;99.90;;;;;;5030378;28;20599;-80
2022/01/23 15:12:38;;;;;;;7.57;4.07;;;11.40;99.90;;;;;;5044995;28;20260;-80
2022/01/23 15:15:06;;;;;;;6.47;2.53;;;11.30;99.90;;;;;;5035361;28;20580;-80
2022/01/23 15:17:33;;;;;;;12.43;8.83;;;11.30;99.90;;;;;;5049315;28;21130;-80
2022/01/23 15:20:01;;;;;;;5.83;2.60;;;11.30;99.90;;;;;;5045597;28;20588;-81
2022/01/23 15:22:31;;;;;;;5.30;2.47;;;11.30;99.90;;;;;;5046368;28;20246;-83
2022/01/23 15:24:58;;;;;;;3.83;1.90;;;11.20;99.90;;;;;;5043289;28;20281;-84
2022/01/23 15:27:25;;;;;;;7.07;1.93;;;11.20;99.90;;;;;;5043595;28;20254;-80
2022/01/23 15:29:51;;;;;;;4.60;1.80;;;11.20;99.90;;;;;;5042470;28;20233;-82
2022/01/23 15:32:18;;;;;;;4.73;1.53;;;11.20;99.90;;;;;;5056478;28;20226;-80
2022/01/23 15:34:45;;;;;;;3.20;1.50;;;11.10;99.90;;;;;;5041862;28;20353;-81
2022/01/23 15:37:14;;;;;;;5.30;1.67;;;11.10;99.90;;;;;;5047845;28;20325;-80
2022/01/23 15:39:41;;;;;;;3.70;1.87;;;11.10;99.90;;;;;;5054135;28;20885;-80
2022/01/23 15:42:09;;;;;;;4.53;1.80;;;11.10;99.90;;;;;;5036213;28;20225;-81
2022/01/23 15:44:35;;;;;;;6.20;2.10;;;11.10;99.90;;;;;;5031170;28;20350;-80
2022/01/23 15:47:03;;;;;;;5.00;1.63;;;11.10;99.90;;;;;;5050404;28;20229;-81
2022/01/23 15:49:30;;;;;;;3.30;1.50;;;11.00;99.90;;;;;;5042775;28;20240;-80
2022/01/23 15:51:56;;;;;;;2.13;1.33;;;11.00;99.90;;;;;;5051877;28;20234;-81
2022/01/23 15:54:24;;;;;;;3.53;1.60;;;11.00;99.90;;;;;;5022321;28;20505;-81
2022/01/23 15:56:52;;;;;;;2.83;1.50;;;11.00;99.90;;;;;;5044012;28;20255;-80
2022/01/23 15:59:19;;;;;;;3.77;2.00;;;11.00;99.90;;;;;;5042280;28;20234;-80